createdAt,value
2022-12-25T00:01:17.889Z,12.60
2022-12-25T00:03:45.312Z,12.60
2022-12-25T00:06:13.024Z,12.64
2022-12-25T00:08:40.779Z,12.47
2022-12-25T00:11:13.337Z,12.41
2022-12-25T00:13:42.325Z,12.32
2022-12-25T00:16:13.834Z,12.31
2022-12-25T00:18:41.115Z,12.41
2022-12-25T00:21:08.420Z,12.50
2022-12-25T00:23:36.155Z,12.46
2022-12-25T00:26:07.178Z,12.59
2022-12-25T00:28:36.136Z,12.73
2022-12-25T00:31:08.967Z,12.80
2022-12-25T00:33:39.821Z,12.56
2022-12-25T00:36:08.184Z,12.69
2022-12-25T00:38:36.948Z,12.60
2022-12-25T00:41:15.680Z,12.62
2022-12-25T00:43:43.469Z,12.67
2022-12-25T00:46:12.651Z,12.73
2022-12-25T00:48:40.548Z,12.85
2022-12-25T00:51:11.144Z,12.82
2022-12-25T00:53:38.891Z,12.80
2022-12-25T00:56:07.718Z,13.06
2022-12-25T00:58:35.625Z,13.07
2022-12-25T01:01:03.251Z,12.94
2022-12-25T01:03:30.650Z,13.01
2022-12-25T01:06:03.110Z,13.18
2022-12-25T01:08:31.991Z,13.12
2022-12-25T01:11:01.900Z,13.03
2022-12-25T01:13:30.674Z,12.95
2022-12-25T01:15:58.121Z,13.03
2022-12-25T01:18:25.436Z,12.82
2022-12-25T01:20:52.644Z,12.79
2022-12-25T01:23:19.897Z,12.85
2022-12-25T01:25:47.227Z,12.92
2022-12-25T01:28:15.973Z,12.89
2022-12-25T01:30:48.882Z,12.91
2022-12-25T01:33:16.156Z,12.79
2022-12-25T01:35:43.389Z,12.81
2022-12-25T01:38:10.640Z,13.00
2022-12-25T01:40:39.924Z,12.92
2022-12-25T01:43:22.596Z,12.81
2022-12-25T01:45:52.570Z,12.79
2022-12-25T01:48:23.679Z,12.88
2022-12-25T01:50:57.803Z,12.90
2022-12-25T01:53:26.377Z,12.72
2022-12-25T01:55:57.477Z,12.83
2022-12-25T01:58:25.275Z,12.83
2022-12-25T02:00:52.965Z,12.91
2022-12-25T02:03:21.564Z,12.97
2022-12-25T02:05:49.036Z,12.81
2022-12-25T02:08:17.532Z,12.92
2022-12-25T02:10:45.231Z,12.92
2022-12-25T02:13:14.798Z,13.06
2022-12-25T02:16:12.531Z,13.03
2022-12-25T02:18:45.772Z,13.06
2022-12-25T02:21:40.705Z,12.93
2022-12-25T02:24:20.139Z,12.95
2022-12-25T02:27:32.309Z,12.93
2022-12-25T02:30:04.511Z,12.88
2022-12-25T02:33:13.926Z,12.92
2022-12-25T02:35:42.689Z,12.81
2022-12-25T02:38:25.839Z,12.87
2022-12-25T02:40:57.994Z,12.79
2022-12-25T02:43:48.851Z,12.93
2022-12-25T02:46:36.692Z,12.87
2022-12-25T02:49:26.211Z,12.80
2022-12-25T02:52:16.115Z,12.75
2022-12-25T02:55:11.698Z,12.74
2022-12-25T02:58:01.179Z,12.92
2022-12-25T03:00:48.241Z,12.91
2022-12-25T03:03:34.640Z,12.92
2022-12-25T03:06:22.272Z,12.72
2022-12-25T03:08:53.216Z,12.88
2022-12-25T03:11:32.556Z,12.85
2022-12-25T03:14:24.794Z,12.74
2022-12-25T03:16:54.831Z,12.67
2022-12-25T03:19:45.088Z,12.92
2022-12-25T03:22:35.561Z,12.91
2022-12-25T03:25:21.538Z,12.74
2022-12-25T03:27:52.843Z,12.74
2022-12-25T03:30:40.151Z,12.70
2022-12-25T03:33:44.311Z,12.62
2022-12-25T03:36:15.659Z,12.74
2022-12-25T03:38:49.870Z,12.93
2022-12-25T03:41:55.805Z,12.98
2022-12-25T03:44:53.302Z,12.96
2022-12-25T03:47:35.632Z,12.85
2022-12-25T03:50:23.423Z,12.86
2022-12-25T03:53:11.939Z,12.64
2022-12-25T03:55:58.209Z,12.72
2022-12-25T03:58:45.056Z,12.59
2022-12-25T04:01:31.837Z,12.74
2022-12-25T04:04:18.160Z,12.78
2022-12-25T04:07:04.067Z,12.81
2022-12-25T04:09:49.975Z,12.80
2022-12-25T04:12:35.796Z,12.65
2022-12-25T04:15:35.390Z,12.50
2022-12-25T04:18:21.372Z,12.41
2022-12-25T04:21:07.018Z,12.42
2022-12-25T04:23:53.062Z,12.65
2022-12-25T04:26:38.999Z,12.77
2022-12-25T04:29:25.159Z,12.81
2022-12-25T04:32:11.189Z,12.69
2022-12-25T04:34:57.083Z,12.52
2022-12-25T04:37:24.502Z,12.91
2022-12-25T04:39:51.867Z,12.72
2022-12-25T04:42:19.338Z,12.73
2022-12-25T04:44:46.541Z,12.65
2022-12-25T04:47:13.841Z,12.43
2022-12-25T04:49:41.194Z,12.56
2022-12-25T04:52:08.759Z,12.56
2022-12-25T04:54:38.152Z,12.55
2022-12-25T04:57:05.899Z,12.50
2022-12-25T04:59:33.199Z,12.48
2022-12-25T05:02:00.620Z,12.79
2022-12-25T05:04:28.028Z,12.74
2022-12-25T05:06:55.477Z,12.74
2022-12-25T05:09:22.955Z,12.99
2022-12-25T05:11:50.365Z,12.93
2022-12-25T05:14:17.836Z,12.77
2022-12-25T05:16:45.339Z,12.71
2022-12-25T05:19:12.691Z,12.94
2022-12-25T05:21:39.956Z,12.90
2022-12-25T05:24:07.328Z,12.62
2022-12-25T05:26:34.709Z,12.63
2022-12-25T05:29:02.106Z,12.69
2022-12-25T05:31:29.447Z,12.61
2022-12-25T05:33:56.871Z,12.67
2022-12-25T05:36:24.182Z,12.71
2022-12-25T05:38:51.683Z,12.82
2022-12-25T05:41:19.139Z,12.79
2022-12-25T05:43:46.432Z,12.81
2022-12-25T05:46:14.406Z,12.96
2022-12-25T05:48:41.801Z,12.81
2022-12-25T05:51:12.075Z,12.83
2022-12-25T05:53:39.673Z,12.77
2022-12-25T05:56:07.755Z,12.77
2022-12-25T05:58:37.084Z,12.96
2022-12-25T06:01:04.423Z,12.92
2022-12-25T06:03:32.073Z,13.08
2022-12-25T06:05:59.425Z,12.93
2022-12-25T06:08:26.754Z,12.87
2022-12-25T06:10:54.113Z,12.80
2022-12-25T06:13:21.417Z,12.83
2022-12-25T06:15:49.157Z,12.78
2022-12-25T06:18:16.397Z,12.82
2022-12-25T06:20:43.725Z,12.84
2022-12-25T06:23:11.325Z,12.82
2022-12-25T06:25:40.374Z,12.66
2022-12-25T06:28:07.719Z,12.80
2022-12-25T06:30:35.062Z,12.91
2022-12-25T06:33:02.418Z,12.85
2022-12-25T06:35:29.805Z,12.82
2022-12-25T06:37:57.376Z,12.92
2022-12-25T06:40:24.636Z,12.80
2022-12-25T06:42:52.107Z,12.81
2022-12-25T06:45:19.305Z,12.72
2022-12-25T06:47:46.772Z,12.69
2022-12-25T06:50:14.064Z,12.59
2022-12-25T06:52:41.677Z,12.62
2022-12-25T06:55:09.464Z,12.76
2022-12-25T06:57:36.783Z,12.60
2022-12-25T07:00:04.835Z,12.65
2022-12-25T07:02:33.516Z,12.53
2022-12-25T07:05:01.599Z,12.61
2022-12-25T07:07:28.861Z,12.52
2022-12-25T07:09:56.332Z,12.58
2022-12-25T07:12:24.271Z,12.90
2022-12-25T07:14:54.175Z,12.93
2022-12-25T07:17:22.075Z,12.87
2022-12-25T07:19:49.797Z,12.72
2022-12-25T07:22:17.155Z,12.62
2022-12-25T07:24:44.464Z,12.76
2022-12-25T07:27:11.768Z,12.55
2022-12-25T07:29:39.145Z,12.53
2022-12-25T07:32:06.494Z,12.52
2022-12-25T07:34:33.815Z,12.45
2022-12-25T07:37:01.205Z,12.35
2022-12-25T07:39:28.612Z,12.48
2022-12-25T07:41:55.949Z,12.43
2022-12-25T07:44:26.780Z,12.59
2022-12-25T07:46:54.041Z,12.58
2022-12-25T07:49:21.296Z,12.53
2022-12-25T07:51:48.598Z,12.47
2022-12-25T07:54:16.005Z,12.51
2022-12-25T07:56:43.200Z,12.39
2022-12-25T07:59:10.568Z,12.36
2022-12-25T08:01:37.969Z,12.47
2022-12-25T08:04:05.528Z,12.42
2022-12-25T08:06:34.660Z,12.57
2022-12-25T08:09:07.565Z,12.54
2022-12-25T08:11:34.920Z,12.77
2022-12-25T08:14:05.047Z,12.61
2022-12-25T08:16:32.360Z,12.56
2022-12-25T08:18:59.553Z,12.71
2022-12-25T08:21:27.274Z,12.72
2022-12-25T08:23:54.494Z,12.51
2022-12-25T08:26:22.744Z,12.59
2022-12-25T08:28:50.580Z,12.73
2022-12-25T08:31:26.312Z,12.63
2022-12-25T08:33:56.279Z,12.42
2022-12-25T08:36:24.187Z,12.51
2022-12-25T08:38:54.588Z,12.81
2022-12-25T08:41:26.624Z,12.75
2022-12-25T08:43:54.052Z,12.56
2022-12-25T08:46:21.486Z,12.60
2022-12-25T08:48:49.854Z,12.47
2022-12-25T08:51:19.892Z,12.30
2022-12-25T08:53:48.471Z,12.45
2022-12-25T08:56:16.502Z,12.76
2022-12-25T08:58:44.057Z,12.82
2022-12-25T09:01:12.559Z,12.77
2022-12-25T09:03:40.188Z,12.56
2022-12-25T09:06:09.966Z,12.59
2022-12-25T09:08:42.405Z,12.71
2022-12-25T09:11:14.414Z,12.75
2022-12-25T09:13:42.127Z,12.43
2022-12-25T09:16:12.398Z,12.69
2022-12-25T09:18:39.807Z,12.75
2022-12-25T09:21:09.856Z,12.92
2022-12-25T09:23:37.521Z,12.91
2022-12-25T09:26:06.651Z,13.02
2022-12-25T09:28:34.399Z,12.86
2022-12-25T09:31:01.863Z,12.96
2022-12-25T09:33:29.288Z,12.90
2022-12-25T09:36:01.795Z,12.91
2022-12-25T09:38:29.673Z,12.81
2022-12-25T09:41:08.389Z,12.90
2022-12-25T09:43:42.577Z,12.84
2022-12-25T09:46:15.641Z,12.83
2022-12-25T09:48:48.549Z,12.72
2022-12-25T09:51:17.068Z,12.69
2022-12-25T09:53:50.349Z,12.68
2022-12-25T09:56:20.218Z,12.71
2022-12-25T09:58:47.479Z,12.69
2022-12-25T10:01:21.604Z,12.73
2022-12-25T10:04:01.002Z,12.78
2022-12-25T10:06:41.200Z,12.86
2022-12-25T10:09:20.767Z,12.79
2022-12-25T10:12:06.756Z,12.74
2022-12-25T10:14:36.845Z,13.02
2022-12-25T10:17:41.304Z,13.01
2022-12-25T10:20:35.090Z,12.93
2022-12-25T10:23:04.746Z,13.01
2022-12-25T10:25:32.735Z,12.90
2022-12-25T10:28:04.787Z,13.08
2022-12-25T10:30:32.575Z,13.10
2022-12-25T10:33:00.446Z,13.10
2022-12-25T10:35:29.208Z,13.16
2022-12-25T10:38:02.952Z,13.03
2022-12-25T10:41:00.070Z,13.10
2022-12-25T10:43:33.887Z,12.98
2022-12-25T10:46:01.192Z,13.07
2022-12-25T10:48:30.139Z,12.85
2022-12-25T10:50:57.516Z,12.95
2022-12-25T10:53:29.567Z,13.09
2022-12-25T10:56:02.615Z,13.04
2022-12-25T10:58:30.486Z,13.02
2022-12-25T11:01:06.651Z,13.14
2022-12-25T11:03:44.183Z,13.35
2022-12-25T11:06:27.255Z,13.51
2022-12-25T11:08:58.857Z,13.37
2022-12-25T11:11:27.428Z,13.35
2022-12-25T11:13:59.477Z,13.33
2022-12-25T11:16:26.836Z,13.30
2022-12-25T11:18:55.213Z,13.39
2022-12-25T11:21:24.519Z,13.25
2022-12-25T11:24:15.959Z,13.32
2022-12-25T11:26:51.946Z,13.37
2022-12-25T11:29:25.421Z,13.33
2022-12-25T11:31:54.890Z,13.41
2022-12-25T11:34:41.988Z,13.41
2022-12-25T11:37:16.103Z,13.37
2022-12-25T11:39:43.491Z,13.65
2022-12-25T11:42:27.490Z,13.66
2022-12-25T11:45:29.317Z,13.64
2022-12-25T11:48:12.073Z,13.77
2022-12-25T11:50:46.737Z,13.69
2022-12-25T11:53:22.989Z,13.70
2022-12-25T11:55:55.053Z,13.80
2022-12-25T11:58:25.289Z,13.76
2022-12-25T12:00:54.885Z,13.70
2022-12-25T12:03:28.766Z,13.93
2022-12-25T12:06:02.694Z,13.87
2022-12-25T12:08:30.447Z,13.93
2022-12-25T12:11:17.825Z,14.05
2022-12-25T12:13:51.526Z,14.01
2022-12-25T12:16:19.076Z,14.17
2022-12-25T12:18:50.331Z,14.09
2022-12-25T12:21:17.889Z,14.07
2022-12-25T12:24:17.233Z,14.30
2022-12-25T12:26:46.155Z,14.28
2022-12-25T12:29:29.157Z,14.32
2022-12-25T12:32:00.857Z,14.26
2022-12-25T12:34:42.450Z,14.00
2022-12-25T12:37:24.855Z,14.02
2022-12-25T12:39:54.275Z,14.03
2022-12-25T12:42:40.421Z,14.18
2022-12-25T12:45:11.079Z,14.04
2022-12-25T12:47:41.909Z,14.10
2022-12-25T12:50:36.504Z,14.04
2022-12-25T12:53:22.252Z,14.06
2022-12-25T12:55:50.715Z,14.40
2022-12-25T12:58:33.095Z,14.34
2022-12-25T13:01:35.723Z,14.51
2022-12-25T13:04:18.220Z,14.86
2022-12-25T13:06:54.064Z,15.01
2022-12-25T13:09:49.076Z,14.96
2022-12-25T13:12:17.280Z,15.02
2022-12-25T13:14:46.326Z,14.76
2022-12-25T13:17:18.864Z,14.82
2022-12-25T13:19:46.736Z,14.87
2022-12-25T13:22:25.974Z,15.00
2022-12-25T13:24:58.725Z,14.69
2022-12-25T13:27:31.337Z,14.97
2022-12-25T13:29:59.175Z,15.25
2022-12-25T13:32:28.933Z,15.07
2022-12-25T13:34:56.294Z,15.22
2022-12-25T13:37:28.903Z,15.16
2022-12-25T13:39:57.166Z,15.21
2022-12-25T13:42:27.650Z,15.32
2022-12-25T13:45:02.060Z,15.27
2022-12-25T13:47:33.795Z,15.05
2022-12-25T13:50:22.180Z,15.17
2022-12-25T13:52:49.899Z,15.15
2022-12-25T13:55:22.621Z,15.33
2022-12-25T13:57:59.260Z,15.52
2022-12-25T14:00:39.616Z,15.38
2022-12-25T14:03:07.950Z,15.20
2022-12-25T14:05:42.787Z,15.32
2022-12-25T14:08:17.287Z,15.16
2022-12-25T14:10:46.368Z,15.09
2022-12-25T14:13:15.043Z,15.29
2022-12-25T14:15:43.130Z,15.19
2022-12-25T14:18:21.204Z,15.58
2022-12-25T14:21:00.176Z,15.13
2022-12-25T14:23:31.150Z,15.01
2022-12-25T14:25:58.514Z,15.16
2022-12-25T14:28:32.158Z,15.06
2022-12-25T14:31:01.140Z,15.18
2022-12-25T14:33:32.991Z,15.13
2022-12-25T14:36:00.353Z,15.15
2022-12-25T14:38:35.149Z,14.97
2022-12-25T14:41:05.195Z,14.91
2022-12-25T14:43:34.511Z,15.10
2022-12-25T14:46:08.152Z,14.99
2022-12-25T14:48:35.607Z,15.08
2022-12-25T14:51:16.143Z,15.18
2022-12-25T14:53:50.525Z,14.98
2022-12-25T14:56:20.620Z,15.05
2022-12-25T14:58:50.943Z,15.04
2022-12-25T15:01:34.523Z,15.19
2022-12-25T15:04:11.113Z,15.11
2022-12-25T15:06:53.253Z,15.04
2022-12-25T15:09:21.087Z,15.09
2022-12-25T15:11:53.023Z,15.02
2022-12-25T15:14:20.386Z,15.03
2022-12-25T15:16:50.161Z,14.95
2022-12-25T15:19:26.625Z,15.06
2022-12-25T15:21:57.657Z,14.97
2022-12-25T15:24:25.179Z,15.04
2022-12-25T15:26:55.273Z,14.96
2022-12-25T15:29:44.538Z,15.00
2022-12-25T15:32:19.326Z,14.98
2022-12-25T15:34:47.278Z,15.09
2022-12-25T15:37:14.678Z,15.16
2022-12-25T15:39:42.139Z,15.16
2022-12-25T15:42:22.923Z,15.14
2022-12-25T15:44:50.749Z,14.79
2022-12-25T15:47:20.164Z,14.87
2022-12-25T15:49:47.644Z,14.91
2022-12-25T15:52:16.699Z,14.73
2022-12-25T15:54:44.211Z,14.78
2022-12-25T15:57:18.498Z,14.93
2022-12-25T15:59:45.771Z,14.81
2022-12-25T16:02:18.973Z,14.73
2022-12-25T16:04:46.894Z,14.68
2022-12-25T16:07:24.956Z,14.58
2022-12-25T16:09:52.344Z,14.61
2022-12-25T16:12:20.645Z,14.64
2022-12-25T16:14:47.977Z,14.57
2022-12-25T16:17:16.596Z,14.69
2022-12-25T16:19:44.952Z,14.55
2022-12-25T16:22:19.726Z,14.68
2022-12-25T16:24:48.034Z,14.85
2022-12-25T16:27:15.374Z,14.70
2022-12-25T16:29:42.734Z,14.53
2022-12-25T16:32:11.126Z,14.59
2022-12-25T16:34:38.510Z,14.73
2022-12-25T16:37:06.093Z,14.71
2022-12-25T16:39:33.352Z,14.58
2022-12-25T16:42:00.752Z,14.49
2022-12-25T16:44:28.094Z,14.71
2022-12-25T16:46:55.345Z,14.66
2022-12-25T16:49:22.774Z,14.69
2022-12-25T16:51:50.072Z,14.81
2022-12-25T16:54:17.455Z,14.75
2022-12-25T16:56:44.761Z,14.92
2022-12-25T16:59:12.098Z,14.88
2022-12-25T17:01:43.187Z,14.84
2022-12-25T17:04:10.865Z,14.80
2022-12-25T17:06:38.260Z,14.84
2022-12-25T17:09:05.752Z,14.79
2022-12-25T17:11:33.359Z,14.98
2022-12-25T17:14:02.729Z,14.81
2022-12-25T17:16:32.642Z,14.68
2022-12-25T17:19:04.190Z,14.71
2022-12-25T17:21:35.447Z,14.62
2022-12-25T17:24:04.145Z,14.66
2022-12-25T17:26:32.523Z,14.69
2022-12-25T17:29:00.290Z,14.50
2022-12-25T17:31:27.766Z,14.49
2022-12-25T17:33:55.326Z,14.54
2022-12-25T17:36:22.917Z,14.66
2022-12-25T17:38:50.142Z,14.61
2022-12-25T17:41:18.615Z,14.57
2022-12-25T17:43:46.735Z,14.47
2022-12-25T17:46:19.720Z,14.49
2022-12-25T17:48:47.619Z,14.50
2022-12-25T17:51:16.771Z,14.56
2022-12-25T17:53:46.583Z,14.60
2022-12-25T17:56:14.398Z,14.41
2022-12-25T17:58:42.314Z,14.55
2022-12-25T18:01:13.957Z,14.59
2022-12-25T18:03:42.804Z,14.56
2022-12-25T18:06:15.290Z,14.64
2022-12-25T18:08:44.556Z,14.36
2022-12-25T18:11:24.548Z,14.56
2022-12-25T18:13:53.522Z,14.67
2022-12-25T18:16:22.924Z,14.62
2022-12-25T18:18:52.711Z,14.70
2022-12-25T18:21:21.735Z,14.63
2022-12-25T18:23:50.140Z,14.62
2022-12-25T18:26:18.835Z,14.59
2022-12-25T18:28:46.554Z,14.82
2022-12-25T18:31:16.951Z,14.80
2022-12-25T18:33:45.336Z,14.70
2022-12-25T18:36:14.302Z,14.71
2022-12-25T18:38:42.363Z,14.63
2022-12-25T18:41:10.585Z,14.71
2022-12-25T18:43:52.947Z,14.77
2022-12-25T18:46:27.060Z,14.65
2022-12-25T18:48:56.156Z,14.38
2022-12-25T18:51:23.575Z,14.56
2022-12-25T18:53:51.405Z,14.44
2022-12-25T18:56:20.154Z,14.58
2022-12-25T18:58:47.656Z,14.51
2022-12-25T19:01:18.236Z,14.48
2022-12-25T19:03:46.364Z,14.67
2022-12-25T19:06:22.940Z,14.81
2022-12-25T19:08:50.727Z,14.71
2022-12-25T19:11:18.332Z,14.53
2022-12-25T19:13:46.084Z,14.61
2022-12-25T19:16:14.154Z,14.60
2022-12-25T19:18:42.688Z,14.68
2022-12-25T19:21:10.487Z,14.41
2022-12-25T19:23:38.681Z,14.44
2022-12-25T19:26:07.579Z,14.48
2022-12-25T19:28:35.723Z,14.68
2022-12-25T19:31:07.300Z,14.64
2022-12-25T19:33:35.823Z,14.73
2022-12-25T19:36:04.989Z,14.91
2022-12-25T19:38:32.584Z,14.71
2022-12-25T19:41:02.890Z,14.70
2022-12-25T19:43:33.397Z,14.62
2022-12-25T19:46:01.606Z,14.71
2022-12-25T19:48:30.710Z,14.68
2022-12-25T19:50:58.283Z,14.58
2022-12-25T19:53:26.248Z,14.49
2022-12-25T19:55:53.895Z,14.55
2022-12-25T19:58:22.403Z,14.69
2022-12-25T20:01:07.381Z,14.65
2022-12-25T20:03:40.203Z,14.72
2022-12-25T20:06:22.086Z,14.60
2022-12-25T20:08:52.528Z,14.65
2022-12-25T20:11:21.227Z,14.72
2022-12-25T20:13:48.669Z,14.89
2022-12-25T20:16:16.181Z,14.98
2022-12-25T20:18:43.644Z,15.04
2022-12-25T20:21:14.207Z,14.84
2022-12-25T20:23:42.604Z,14.86
2022-12-25T20:26:10.695Z,14.82
2022-12-25T20:28:38.768Z,14.51
2022-12-25T20:31:39.846Z,14.57
2022-12-25T20:34:10.982Z,14.75
2022-12-25T20:36:38.594Z,14.80
2022-12-25T20:39:09.673Z,14.65
2022-12-25T20:41:38.241Z,14.79
2022-12-25T20:44:08.458Z,14.65
2022-12-25T20:46:35.875Z,14.65
2022-12-25T20:49:03.399Z,14.42
2022-12-25T20:51:30.862Z,14.61
2022-12-25T20:53:58.503Z,14.71
2022-12-25T20:56:27.111Z,14.83
2022-12-25T20:58:56.158Z,14.76
2022-12-25T21:01:25.035Z,14.39
2022-12-25T21:03:52.779Z,14.60
2022-12-25T21:06:21.128Z,14.58
2022-12-25T21:08:48.642Z,14.61
2022-12-25T21:11:16.841Z,14.56
2022-12-25T21:13:46.042Z,14.51
2022-12-25T21:16:19.903Z,14.56
2022-12-25T21:18:48.144Z,14.59
2022-12-25T21:21:15.492Z,14.66
2022-12-25T21:23:43.165Z,14.81
2022-12-25T21:26:19.648Z,14.72
2022-12-25T21:28:48.191Z,14.61
2022-12-25T21:31:15.551Z,14.85
2022-12-25T21:33:52.915Z,14.56
2022-12-25T21:36:29.128Z,14.59
2022-12-25T21:38:58.870Z,14.52
2022-12-25T21:41:27.727Z,14.49
2022-12-25T21:43:55.359Z,14.36
2022-12-25T21:46:23.139Z,14.39
2022-12-25T21:48:50.489Z,14.36
2022-12-25T21:51:42.039Z,14.31
2022-12-25T21:54:09.884Z,14.38
2022-12-25T21:56:44.186Z,14.51
2022-12-25T21:59:18.188Z,14.47
2022-12-25T22:01:46.642Z,14.56
2022-12-25T22:04:15.342Z,14.31
2022-12-25T22:07:01.806Z,14.35
2022-12-25T22:09:29.493Z,14.39
2022-12-25T22:12:28.610Z,14.45
2022-12-25T22:15:09.557Z,14.38
2022-12-25T22:17:59.835Z,14.37
2022-12-25T22:20:35.044Z,14.42
2022-12-25T22:23:03.030Z,14.34
2022-12-25T22:25:30.631Z,14.34
2022-12-25T22:27:57.878Z,14.53
2022-12-25T22:30:27.275Z,14.42
2022-12-25T22:32:55.157Z,14.57
2022-12-25T22:35:22.650Z,14.16
2022-12-25T22:37:50.083Z,14.88
2022-12-25T22:40:19.455Z,15.25
2022-12-25T22:42:47.759Z,15.43
2022-12-25T22:45:15.240Z,15.38
2022-12-25T22:47:42.770Z,15.26
2022-12-25T22:50:11.122Z,15.29
2022-12-25T22:52:39.256Z,15.31
2022-12-25T22:55:08.345Z,15.37
2022-12-25T22:57:36.095Z,15.53
2022-12-25T23:00:05.981Z,15.33
2022-12-25T23:02:35.263Z,15.57
2022-12-25T23:05:03.347Z,15.62
2022-12-25T23:07:30.782Z,15.59
2022-12-25T23:09:58.055Z,15.65
2022-12-25T23:12:44.094Z,15.65
2022-12-25T23:15:11.510Z,15.60
2022-12-25T23:17:57.721Z,15.63
2022-12-25T23:20:43.577Z,15.74
2022-12-25T23:23:36.156Z,15.68
2022-12-25T23:26:09.771Z,15.57
2022-12-25T23:28:57.757Z,15.55
2022-12-25T23:31:37.186Z,15.50
2022-12-25T23:34:05.660Z,15.65
2022-12-25T23:36:33.684Z,15.58
2022-12-25T23:39:08.530Z,15.57
2022-12-25T23:41:43.024Z,15.47
2022-12-25T23:44:12.010Z,15.46
2022-12-25T23:46:40.703Z,15.46
2022-12-25T23:49:09.306Z,15.49
2022-12-25T23:51:43.065Z,15.42
2022-12-25T23:54:15.642Z,15.56
2022-12-25T23:56:43.276Z,15.58
2022-12-25T23:59:11.782Z,15.66
